<?xml version="1.0" encoding="UTF-8" standalone="no" ?>
<gpx xmlns="http://www.topografix.com/GPX/1/1" xmlns:xsi="http://www.w3.org/2001/XMLSchema-instance" xsi:schemaLocation="http://www.topografix.com/GPX/1/1 http://www.topografix.com/GPX/1/1/gpx.xsd" version="1.1" creator="VisuGPX - https://www.visugpx.com">
  <metadata>
    <name>Rando AN-Ath Vosges 02_08_2016 Jean-Luc</name>
    <desc><![CDATA[Les Vosges 2016
Rando du 02/08/2016 guide Jean-Luc]]></desc>
  </metadata>
  <trk>
    <name><![CDATA[08_02_Jean_Luc]]></name>
    <trkseg>
      <trkpt lat="47.82095" lon="7.15361">
        <ele>354.2</ele>
        <time>2016-02-08T08:28:05.000Z</time>
      </trkpt>
      <trkpt lat="47.82116" lon="7.15365">
        <ele>353.62</ele>
        <time>2016-02-08T08:29:03.000Z</time>
      </trkpt>
      <trkpt lat="47.82125" lon="7.1537">
        <ele>354.11</ele>
        <time>2016-02-08T08:29:20.000Z</time>
      </trkpt>
      <trkpt lat="47.82132" lon="7.15349">
        <ele>354.11</ele>
        <time>2016-02-08T08:29:36.000Z</time>
      </trkpt>
      <trkpt lat="47.82142" lon="7.15329">
        <ele>354.21</ele>
        <time>2016-02-08T08:29:51.000Z</time>
      </trkpt>
      <trkpt lat="47.82157" lon="7.1531">
        <ele>354.75</ele>
        <time>2016-02-08T08:30:06.000Z</time>
      </trkpt>
      <trkpt lat="47.82168" lon="7.15288">
        <ele>355.6</ele>
        <time>2016-02-08T08:30:24.000Z</time>
      </trkpt>
      <trkpt lat="47.82179" lon="7.15249">
        <ele>356.24</ele>
        <time>2016-02-08T08:30:45.000Z</time>
      </trkpt>
      <trkpt lat="47.82179" lon="7.15199">
        <ele>357.01</ele>
        <time>2016-02-08T08:31:19.000Z</time>
      </trkpt>
      <trkpt lat="47.82183" lon="7.15168">
        <ele>357.65</ele>
        <time>2016-02-08T08:31:37.000Z</time>
      </trkpt>
      <trkpt lat="47.82193" lon="7.15151">
        <ele>359.81</ele>
        <time>2016-02-08T08:32:18.000Z</time>
      </trkpt>
      <trkpt lat="47.82191" lon="7.15092">
        <ele>360.79</ele>
        <time>2016-02-08T08:32:52.000Z</time>
      </trkpt>
      <trkpt lat="47.82244" lon="7.14889">
        <ele>364.81</ele>
        <time>2016-02-08T08:34:49.000Z</time>
      </trkpt>
      <trkpt lat="47.8227" lon="7.14719">
        <ele>371.78</ele>
        <time>2016-02-08T08:36:25.000Z</time>
      </trkpt>
      <trkpt lat="47.82267" lon="7.14654">
        <ele>372.64</ele>
        <time>2016-02-08T08:37:00.000Z</time>
      </trkpt>
      <trkpt lat="47.82293" lon="7.14525">
        <ele>380.15</ele>
        <time>2016-02-08T08:38:11.000Z</time>
      </trkpt>
      <trkpt lat="47.82399" lon="7.14265">
        <ele>387.78</ele>
        <time>2016-02-08T08:41:17.000Z</time>
      </trkpt>
      <trkpt lat="47.82413" lon="7.14206">
        <ele>389.35</ele>
        <time>2016-02-08T08:41:55.000Z</time>
      </trkpt>
      <trkpt lat="47.82452" lon="7.14157">
        <ele>390.93</ele>
        <time>2016-02-08T08:42:30.000Z</time>
      </trkpt>
      <trkpt lat="47.82521" lon="7.14104">
        <ele>393.02</ele>
        <time>2016-02-08T08:43:26.000Z</time>
      </trkpt>
      <trkpt lat="47.82581" lon="7.14011">
        <ele>395.42</ele>
        <time>2016-02-08T08:44:39.000Z</time>
      </trkpt>
      <trkpt lat="47.82613" lon="7.13928">
        <ele>402.08</ele>
        <time>2016-02-08T08:45:34.000Z</time>
      </trkpt>
      <trkpt lat="47.82631" lon="7.1382">
        <ele>407.56</ele>
        <time>2016-02-08T08:46:33.000Z</time>
      </trkpt>
      <trkpt lat="47.82676" lon="7.13711">
        <ele>410.69</ele>
        <time>2016-02-08T08:47:44.000Z</time>
      </trkpt>
      <trkpt lat="47.8269" lon="7.13704">
        <ele>410.72</ele>
        <time>2016-02-08T08:47:53.000Z</time>
      </trkpt>
      <trkpt lat="47.82745" lon="7.13594">
        <ele>416.95</ele>
        <time>2016-02-08T08:49:04.000Z</time>
      </trkpt>
      <trkpt lat="47.82767" lon="7.1357">
        <ele>418.67</ele>
        <time>2016-02-08T08:49:24.000Z</time>
      </trkpt>
      <trkpt lat="47.82783" lon="7.13507">
        <ele>421.46</ele>
        <time>2016-02-08T08:50:02.000Z</time>
      </trkpt>
      <trkpt lat="47.82825" lon="7.13421">
        <ele>426.16</ele>
        <time>2016-02-08T08:50:59.000Z</time>
      </trkpt>
      <trkpt lat="47.82909" lon="7.13139">
        <ele>440.51</ele>
        <time>2016-02-08T08:54:08.000Z</time>
      </trkpt>
      <trkpt lat="47.82939" lon="7.13088">
        <ele>444.73</ele>
        <time>2016-02-08T08:54:56.000Z</time>
      </trkpt>
      <trkpt lat="47.82962" lon="7.13033">
        <ele>447.19</ele>
        <time>2016-02-08T08:55:42.000Z</time>
      </trkpt>
      <trkpt lat="47.82982" lon="7.13022">
        <ele>448.66</ele>
        <time>2016-02-08T08:55:58.000Z</time>
      </trkpt>
      <trkpt lat="47.83006" lon="7.13015">
        <ele>450.13</ele>
        <time>2016-02-08T08:56:16.000Z</time>
      </trkpt>
      <trkpt lat="47.83041" lon="7.12987">
        <ele>451.95</ele>
        <time>2016-02-08T08:56:55.000Z</time>
      </trkpt>
      <trkpt lat="47.83049" lon="7.12975">
        <ele>452.63</ele>
        <time>2016-02-08T08:57:04.000Z</time>
      </trkpt>
      <trkpt lat="47.83036" lon="7.12962">
        <ele>454.05</ele>
        <time>2016-02-08T08:57:36.000Z</time>
      </trkpt>
      <trkpt lat="47.83047" lon="7.12953">
        <ele>455.03</ele>
        <time>2016-02-08T08:59:26.000Z</time>
      </trkpt>
      <trkpt lat="47.83069" lon="7.12946">
        <ele>455.96</ele>
        <time>2016-02-08T08:59:42.000Z</time>
      </trkpt>
      <trkpt lat="47.83106" lon="7.1291">
        <ele>460.23</ele>
        <time>2016-02-08T09:01:15.000Z</time>
      </trkpt>
      <trkpt lat="47.83126" lon="7.12906">
        <ele>460.95</ele>
        <time>2016-02-08T09:01:34.000Z</time>
      </trkpt>
      <trkpt lat="47.8314" lon="7.12909">
        <ele>462.41</ele>
        <time>2016-02-08T09:01:54.000Z</time>
      </trkpt>
      <trkpt lat="47.83151" lon="7.12902">
        <ele>464.79</ele>
        <time>2016-02-08T09:02:14.000Z</time>
      </trkpt>
      <trkpt lat="47.832" lon="7.12905">
        <ele>468.52</ele>
        <time>2016-02-08T09:02:59.000Z</time>
      </trkpt>
      <trkpt lat="47.83238" lon="7.12903">
        <ele>472.66</ele>
        <time>2016-02-08T09:03:36.000Z</time>
      </trkpt>
      <trkpt lat="47.83284" lon="7.12905">
        <ele>477.94</ele>
        <time>2016-02-08T09:04:28.000Z</time>
      </trkpt>
      <trkpt lat="47.83328" lon="7.12906">
        <ele>483.66</ele>
        <time>2016-02-08T09:05:14.000Z</time>
      </trkpt>
      <trkpt lat="47.83369" lon="7.12912">
        <ele>489.22</ele>
        <time>2016-02-08T09:05:55.000Z</time>
      </trkpt>
      <trkpt lat="47.83389" lon="7.12914">
        <ele>493</ele>
        <time>2016-02-08T09:06:22.000Z</time>
      </trkpt>
      <trkpt lat="47.83402" lon="7.1292">
        <ele>496.32</ele>
        <time>2016-02-08T09:06:36.000Z</time>
      </trkpt>
      <trkpt lat="47.83431" lon="7.12925">
        <ele>502.16</ele>
        <time>2016-02-08T09:07:18.000Z</time>
      </trkpt>
      <trkpt lat="47.8346" lon="7.12932">
        <ele>507.38</ele>
        <time>2016-02-08T09:07:53.000Z</time>
      </trkpt>
      <trkpt lat="47.8349" lon="7.12951">
        <ele>511.43</ele>
        <time>2016-02-08T09:08:38.000Z</time>
      </trkpt>
      <trkpt lat="47.83512" lon="7.12949">
        <ele>514.29</ele>
        <time>2016-02-08T09:08:57.000Z</time>
      </trkpt>
      <trkpt lat="47.83522" lon="7.12965">
        <ele>519.53</ele>
        <time>2016-02-08T09:09:35.000Z</time>
      </trkpt>
      <trkpt lat="47.83534" lon="7.12975">
        <ele>521.48</ele>
        <time>2016-02-08T09:09:54.000Z</time>
      </trkpt>
      <trkpt lat="47.83548" lon="7.12976">
        <ele>525.21</ele>
        <time>2016-02-08T09:10:07.000Z</time>
      </trkpt>
      <trkpt lat="47.83558" lon="7.12978">
        <ele>528.07</ele>
        <time>2016-02-08T09:10:22.000Z</time>
      </trkpt>
      <trkpt lat="47.836" lon="7.12968">
        <ele>535.82</ele>
        <time>2016-02-08T09:11:12.000Z</time>
      </trkpt>
      <trkpt lat="47.83623" lon="7.12975">
        <ele>539.6</ele>
        <time>2016-02-08T09:12:09.000Z</time>
      </trkpt>
      <trkpt lat="47.83632" lon="7.12996">
        <ele>543.5</ele>
        <time>2016-02-08T09:12:36.000Z</time>
      </trkpt>
      <trkpt lat="47.83646" lon="7.13012">
        <ele>548.28</ele>
        <time>2016-02-08T09:13:04.000Z</time>
      </trkpt>
      <trkpt lat="47.83658" lon="7.13029">
        <ele>551.02</ele>
        <time>2016-02-08T09:13:23.000Z</time>
      </trkpt>
      <trkpt lat="47.83673" lon="7.13038">
        <ele>554.21</ele>
        <time>2016-02-08T09:13:45.000Z</time>
      </trkpt>
      <trkpt lat="47.8369" lon="7.13049">
        <ele>557.78</ele>
        <time>2016-02-08T09:14:12.000Z</time>
      </trkpt>
      <trkpt lat="47.83702" lon="7.13055">
        <ele>560.89</ele>
        <time>2016-02-08T09:14:27.000Z</time>
      </trkpt>
      <trkpt lat="47.8371" lon="7.13078">
        <ele>568.01</ele>
        <time>2016-02-08T09:15:11.000Z</time>
      </trkpt>
      <trkpt lat="47.83739" lon="7.1306">
        <ele>570.69</ele>
        <time>2016-02-08T09:15:40.000Z</time>
      </trkpt>
      <trkpt lat="47.83735" lon="7.13026">
        <ele>571.32</ele>
        <time>2016-02-08T09:15:58.000Z</time>
      </trkpt>
      <trkpt lat="47.83707" lon="7.12958">
        <ele>571.94</ele>
        <time>2016-02-08T09:16:50.000Z</time>
      </trkpt>
      <trkpt lat="47.83686" lon="7.12935">
        <ele>573.46</ele>
        <time>2016-02-08T09:17:10.000Z</time>
      </trkpt>
      <trkpt lat="47.83661" lon="7.12884">
        <ele>573.47</ele>
        <time>2016-02-08T09:17:43.000Z</time>
      </trkpt>
      <trkpt lat="47.83644" lon="7.12867">
        <ele>574.72</ele>
        <time>2016-02-08T09:18:02.000Z</time>
      </trkpt>
      <trkpt lat="47.83595" lon="7.12843">
        <ele>575.96</ele>
        <time>2016-02-08T09:18:38.000Z</time>
      </trkpt>
      <trkpt lat="47.83585" lon="7.12818">
        <ele>577.64</ele>
        <time>2016-02-08T09:18:58.000Z</time>
      </trkpt>
      <trkpt lat="47.83598" lon="7.1276">
        <ele>579.24</ele>
        <time>2016-02-08T09:19:33.000Z</time>
      </trkpt>
      <trkpt lat="47.83611" lon="7.12729">
        <ele>581.85</ele>
        <time>2016-02-08T09:19:58.000Z</time>
      </trkpt>
      <trkpt lat="47.83641" lon="7.12707">
        <ele>584.37</ele>
        <time>2016-02-08T09:20:34.000Z</time>
      </trkpt>
      <trkpt lat="47.83667" lon="7.12697">
        <ele>584.61</ele>
        <time>2016-02-08T09:20:55.000Z</time>
      </trkpt>
      <trkpt lat="47.83747" lon="7.12618">
        <ele>589.34</ele>
        <time>2016-02-08T09:22:06.000Z</time>
      </trkpt>
      <trkpt lat="47.83759" lon="7.12615">
        <ele>589.41</ele>
        <time>2016-02-08T09:22:20.000Z</time>
      </trkpt>
      <trkpt lat="47.83788" lon="7.12627">
        <ele>593.56</ele>
        <time>2016-02-08T09:22:59.000Z</time>
      </trkpt>
      <trkpt lat="47.83824" lon="7.1263">
        <ele>597.49</ele>
        <time>2016-02-08T09:23:30.000Z</time>
      </trkpt>
      <trkpt lat="47.83868" lon="7.12628">
        <ele>601.96</ele>
        <time>2016-02-08T09:24:10.000Z</time>
      </trkpt>
      <trkpt lat="47.83879" lon="7.12628">
        <ele>604.97</ele>
        <time>2016-02-08T09:24:19.000Z</time>
      </trkpt>
      <trkpt lat="47.83889" lon="7.1263">
        <ele>608.07</ele>
        <time>2016-02-08T09:24:33.000Z</time>
      </trkpt>
      <trkpt lat="47.83946" lon="7.12623">
        <ele>613.7</ele>
        <time>2016-02-08T09:25:37.000Z</time>
      </trkpt>
      <trkpt lat="47.83976" lon="7.12631">
        <ele>616.72</ele>
        <time>2016-02-08T09:26:08.000Z</time>
      </trkpt>
      <trkpt lat="47.84" lon="7.12644">
        <ele>619.94</ele>
        <time>2016-02-08T09:26:38.000Z</time>
      </trkpt>
      <trkpt lat="47.84042" lon="7.12661">
        <ele>622.99</ele>
        <time>2016-02-08T09:27:12.000Z</time>
      </trkpt>
      <trkpt lat="47.84056" lon="7.12647">
        <ele>626.35</ele>
        <time>2016-02-08T09:27:24.000Z</time>
      </trkpt>
      <trkpt lat="47.8404" lon="7.1259">
        <ele>629.96</ele>
        <time>2016-02-08T09:27:56.000Z</time>
      </trkpt>
      <trkpt lat="47.8403" lon="7.12569">
        <ele>632.96</ele>
        <time>2016-02-08T09:28:12.000Z</time>
      </trkpt>
      <trkpt lat="47.84027" lon="7.12548">
        <ele>636.06</ele>
        <time>2016-02-08T09:28:27.000Z</time>
      </trkpt>
      <trkpt lat="47.84027" lon="7.12519">
        <ele>639.88</ele>
        <time>2016-02-08T09:28:47.000Z</time>
      </trkpt>
      <trkpt lat="47.84031" lon="7.12491">
        <ele>641.84</ele>
        <time>2016-02-08T09:29:04.000Z</time>
      </trkpt>
      <trkpt lat="47.84061" lon="7.12433">
        <ele>649.21</ele>
        <time>2016-02-08T09:29:54.000Z</time>
      </trkpt>
      <trkpt lat="47.84116" lon="7.12367">
        <ele>656.4</ele>
        <time>2016-02-08T09:31:04.000Z</time>
      </trkpt>
      <trkpt lat="47.84132" lon="7.12333">
        <ele>660.75</ele>
        <time>2016-02-08T09:31:37.000Z</time>
      </trkpt>
      <trkpt lat="47.84176" lon="7.12301">
        <ele>668.33</ele>
        <time>2016-02-08T09:32:37.000Z</time>
      </trkpt>
      <trkpt lat="47.84206" lon="7.12302">
        <ele>673.97</ele>
        <time>2016-02-08T09:33:09.000Z</time>
      </trkpt>
      <trkpt lat="47.8423" lon="7.12301">
        <ele>679.03</ele>
        <time>2016-02-08T09:33:34.000Z</time>
      </trkpt>
      <trkpt lat="47.84246" lon="7.12304">
        <ele>680.56</ele>
        <time>2016-02-08T09:33:46.000Z</time>
      </trkpt>
      <trkpt lat="47.84264" lon="7.12311">
        <ele>680.61</ele>
        <time>2016-02-08T09:34:02.000Z</time>
      </trkpt>
      <trkpt lat="47.84283" lon="7.12312">
        <ele>683.02</ele>
        <time>2016-02-08T09:34:22.000Z</time>
      </trkpt>
      <trkpt lat="47.8432" lon="7.12298">
        <ele>688.93</ele>
        <time>2016-02-08T09:34:54.000Z</time>
      </trkpt>
      <trkpt lat="47.84344" lon="7.12281">
        <ele>693.33</ele>
        <time>2016-02-08T09:35:17.000Z</time>
      </trkpt>
      <trkpt lat="47.84414" lon="7.12243">
        <ele>701.48</ele>
        <time>2016-02-08T09:36:17.000Z</time>
      </trkpt>
      <trkpt lat="47.84441" lon="7.1222">
        <ele>705.78</ele>
        <time>2016-02-08T09:36:35.000Z</time>
      </trkpt>
      <trkpt lat="47.84463" lon="7.12205">
        <ele>709.97</ele>
        <time>2016-02-08T09:37:00.000Z</time>
      </trkpt>
      <trkpt lat="47.84488" lon="7.12208">
        <ele>713.37</ele>
        <time>2016-02-08T09:37:27.000Z</time>
      </trkpt>
      <trkpt lat="47.84529" lon="7.12211">
        <ele>718.4</ele>
        <time>2016-02-08T09:38:02.000Z</time>
      </trkpt>
      <trkpt lat="47.8455" lon="7.12217">
        <ele>721.06</ele>
        <time>2016-02-08T09:38:20.000Z</time>
      </trkpt>
      <trkpt lat="47.84575" lon="7.12234">
        <ele>726.26</ele>
        <time>2016-02-08T09:38:50.000Z</time>
      </trkpt>
      <trkpt lat="47.84587" lon="7.1224">
        <ele>731.61</ele>
        <time>2016-02-08T09:41:05.000Z</time>
      </trkpt>
      <trkpt lat="47.84589" lon="7.12218">
        <ele>733.34</ele>
        <time>2016-02-08T09:45:07.000Z</time>
      </trkpt>
      <trkpt lat="47.84583" lon="7.12174">
        <ele>737.9</ele>
        <time>2016-02-08T09:45:39.000Z</time>
      </trkpt>
      <trkpt lat="47.84583" lon="7.12141">
        <ele>740.75</ele>
        <time>2016-02-08T09:45:57.000Z</time>
      </trkpt>
      <trkpt lat="47.84589" lon="7.12116">
        <ele>743.09</ele>
        <time>2016-02-08T09:46:17.000Z</time>
      </trkpt>
      <trkpt lat="47.84574" lon="7.12097">
        <ele>746.59</ele>
        <time>2016-02-08T09:46:34.000Z</time>
      </trkpt>
      <trkpt lat="47.84557" lon="7.12073">
        <ele>749.84</ele>
        <time>2016-02-08T09:46:56.000Z</time>
      </trkpt>
      <trkpt lat="47.84523" lon="7.12048">
        <ele>755.87</ele>
        <time>2016-02-08T09:47:31.000Z</time>
      </trkpt>
      <trkpt lat="47.84509" lon="7.12039">
        <ele>758.93</ele>
        <time>2016-02-08T09:47:47.000Z</time>
      </trkpt>
      <trkpt lat="47.84483" lon="7.12028">
        <ele>759.88</ele>
        <time>2016-02-08T09:48:08.000Z</time>
      </trkpt>
      <trkpt lat="47.84426" lon="7.1202">
        <ele>760.53</ele>
        <time>2016-02-08T09:49:00.000Z</time>
      </trkpt>
      <trkpt lat="47.84389" lon="7.11975">
        <ele>763.71</ele>
        <time>2016-02-08T09:49:31.000Z</time>
      </trkpt>
      <trkpt lat="47.8437" lon="7.11969">
        <ele>763.81</ele>
        <time>2016-02-08T09:49:43.000Z</time>
      </trkpt>
      <trkpt lat="47.84347" lon="7.1197">
        <ele>764.28</ele>
        <time>2016-02-08T09:50:01.000Z</time>
      </trkpt>
      <trkpt lat="47.84316" lon="7.11939">
        <ele>765</ele>
        <time>2016-02-08T09:50:29.000Z</time>
      </trkpt>
      <trkpt lat="47.84241" lon="7.11931">
        <ele>765.31</ele>
        <time>2016-02-08T09:51:23.000Z</time>
      </trkpt>
      <trkpt lat="47.8424" lon="7.11899">
        <ele>765.31</ele>
        <time>2016-02-08T09:51:41.000Z</time>
      </trkpt>
      <trkpt lat="47.84245" lon="7.11882">
        <ele>765.35</ele>
        <time>2016-02-08T09:51:51.000Z</time>
      </trkpt>
      <trkpt lat="47.84232" lon="7.11863">
        <ele>765.56</ele>
        <time>2016-02-08T09:52:05.000Z</time>
      </trkpt>
      <trkpt lat="47.84208" lon="7.11839">
        <ele>767.62</ele>
        <time>2016-02-08T09:52:25.000Z</time>
      </trkpt>
      <trkpt lat="47.84203" lon="7.11815">
        <ele>768.28</ele>
        <time>2016-02-08T09:52:40.000Z</time>
      </trkpt>
      <trkpt lat="47.84183" lon="7.11781">
        <ele>768.37</ele>
        <time>2016-02-08T09:53:01.000Z</time>
      </trkpt>
      <trkpt lat="47.84131" lon="7.11731">
        <ele>768.77</ele>
        <time>2016-02-08T09:53:40.000Z</time>
      </trkpt>
      <trkpt lat="47.84112" lon="7.11721">
        <ele>770.17</ele>
        <time>2016-02-08T09:53:56.000Z</time>
      </trkpt>
      <trkpt lat="47.84102" lon="7.11701">
        <ele>771.49</ele>
        <time>2016-02-08T09:54:13.000Z</time>
      </trkpt>
      <trkpt lat="47.84087" lon="7.11703">
        <ele>771.96</ele>
        <time>2016-02-08T09:54:35.000Z</time>
      </trkpt>
      <trkpt lat="47.84062" lon="7.11719">
        <ele>771.97</ele>
        <time>2016-02-08T09:54:45.000Z</time>
      </trkpt>
      <trkpt lat="47.84053" lon="7.11722">
        <ele>772.6</ele>
        <time>2016-02-08T09:54:57.000Z</time>
      </trkpt>
      <trkpt lat="47.84094" lon="7.11636">
        <ele>791.83</ele>
        <time>2016-02-08T09:56:58.000Z</time>
      </trkpt>
      <trkpt lat="47.84103" lon="7.11634">
        <ele>798.54</ele>
        <time>2016-02-08T09:57:39.000Z</time>
      </trkpt>
      <trkpt lat="47.84114" lon="7.11633">
        <ele>804.8</ele>
        <time>2016-02-08T09:58:06.000Z</time>
      </trkpt>
      <trkpt lat="47.84126" lon="7.11634">
        <ele>807.84</ele>
        <time>2016-02-08T09:58:29.000Z</time>
      </trkpt>
      <trkpt lat="47.84153" lon="7.11645">
        <ele>814.45</ele>
        <time>2016-02-08T09:59:12.000Z</time>
      </trkpt>
      <trkpt lat="47.84188" lon="7.11666">
        <ele>820.41</ele>
        <time>2016-02-08T09:59:51.000Z</time>
      </trkpt>
      <trkpt lat="47.84199" lon="7.1167">
        <ele>823.49</ele>
        <time>2016-02-08T10:00:08.000Z</time>
      </trkpt>
      <trkpt lat="47.84238" lon="7.11685">
        <ele>828</ele>
        <time>2016-02-08T10:00:46.000Z</time>
      </trkpt>
      <trkpt lat="47.84248" lon="7.11692">
        <ele>831.01</ele>
        <time>2016-02-08T10:00:58.000Z</time>
      </trkpt>
      <trkpt lat="47.84266" lon="7.11706">
        <ele>834.78</ele>
        <time>2016-02-08T10:01:32.000Z</time>
      </trkpt>
      <trkpt lat="47.84286" lon="7.11719">
        <ele>836.84</ele>
        <time>2016-02-08T10:01:54.000Z</time>
      </trkpt>
      <trkpt lat="47.84304" lon="7.11723">
        <ele>840.01</ele>
        <time>2016-02-08T10:02:12.000Z</time>
      </trkpt>
      <trkpt lat="47.84316" lon="7.11741">
        <ele>842.69</ele>
        <time>2016-02-08T10:02:35.000Z</time>
      </trkpt>
      <trkpt lat="47.84329" lon="7.1175">
        <ele>843.59</ele>
        <time>2016-02-08T10:02:54.000Z</time>
      </trkpt>
      <trkpt lat="47.84345" lon="7.11771">
        <ele>843.59</ele>
        <time>2016-02-08T10:03:15.000Z</time>
      </trkpt>
      <trkpt lat="47.84359" lon="7.11783">
        <ele>843.59</ele>
        <time>2016-02-08T10:03:33.000Z</time>
      </trkpt>
      <trkpt lat="47.84374" lon="7.1178">
        <ele>843.59</ele>
        <time>2016-02-08T10:03:48.000Z</time>
      </trkpt>
      <trkpt lat="47.84387" lon="7.11782">
        <ele>843.59</ele>
        <time>2016-02-08T10:03:59.000Z</time>
      </trkpt>
      <trkpt lat="47.84399" lon="7.11779">
        <ele>845.49</ele>
        <time>2016-02-08T10:04:08.000Z</time>
      </trkpt>
      <trkpt lat="47.84433" lon="7.11789">
        <ele>846.26</ele>
        <time>2016-02-08T10:04:37.000Z</time>
      </trkpt>
      <trkpt lat="47.84494" lon="7.11783">
        <ele>850.4</ele>
        <time>2016-02-08T10:05:29.000Z</time>
      </trkpt>
      <trkpt lat="47.84528" lon="7.11781">
        <ele>852.75</ele>
        <time>2016-02-08T10:05:59.000Z</time>
      </trkpt>
      <trkpt lat="47.84589" lon="7.11799">
        <ele>856.75</ele>
        <time>2016-02-08T10:06:56.000Z</time>
      </trkpt>
      <trkpt lat="47.84692" lon="7.11828">
        <ele>862.18</ele>
        <time>2016-02-08T10:08:19.000Z</time>
      </trkpt>
      <trkpt lat="47.84701" lon="7.1183">
        <ele>864.75</ele>
        <time>2016-02-08T10:08:37.000Z</time>
      </trkpt>
      <trkpt lat="47.84705" lon="7.11817">
        <ele>867.2</ele>
        <time>2016-02-08T10:08:50.000Z</time>
      </trkpt>
      <trkpt lat="47.84718" lon="7.11827">
        <ele>873.35</ele>
        <time>2016-02-08T10:09:15.000Z</time>
      </trkpt>
      <trkpt lat="47.84734" lon="7.11829">
        <ele>876.36</ele>
        <time>2016-02-08T10:09:38.000Z</time>
      </trkpt>
      <trkpt lat="47.84746" lon="7.11827">
        <ele>882.49</ele>
        <time>2016-02-08T10:09:58.000Z</time>
      </trkpt>
      <trkpt lat="47.84768" lon="7.11823">
        <ele>887.75</ele>
        <time>2016-02-08T10:10:38.000Z</time>
      </trkpt>
      <trkpt lat="47.84784" lon="7.11823">
        <ele>889.7</ele>
        <time>2016-02-08T10:11:03.000Z</time>
      </trkpt>
      <trkpt lat="47.84808" lon="7.11829">
        <ele>896.9</ele>
        <time>2016-02-08T10:11:35.000Z</time>
      </trkpt>
      <trkpt lat="47.84824" lon="7.11784">
        <ele>911.68</ele>
        <time>2016-02-08T10:13:13.000Z</time>
      </trkpt>
      <trkpt lat="47.84867" lon="7.11807">
        <ele>915.11</ele>
        <time>2016-02-08T10:13:53.000Z</time>
      </trkpt>
      <trkpt lat="47.84877" lon="7.11803">
        <ele>917.81</ele>
        <time>2016-02-08T10:14:13.000Z</time>
      </trkpt>
      <trkpt lat="47.84877" lon="7.11781">
        <ele>917.87</ele>
        <time>2016-02-08T10:14:30.000Z</time>
      </trkpt>
      <trkpt lat="47.84888" lon="7.1178">
        <ele>917.98</ele>
        <time>2016-02-08T10:15:23.000Z</time>
      </trkpt>
      <trkpt lat="47.84899" lon="7.11789">
        <ele>919.73</ele>
        <time>2016-02-08T10:16:38.000Z</time>
      </trkpt>
      <trkpt lat="47.84911" lon="7.11803">
        <ele>921.65</ele>
        <time>2016-02-08T10:16:54.000Z</time>
      </trkpt>
      <trkpt lat="47.84937" lon="7.11853">
        <ele>927.57</ele>
        <time>2016-02-08T10:17:38.000Z</time>
      </trkpt>
      <trkpt lat="47.84949" lon="7.11868">
        <ele>927.57</ele>
        <time>2016-02-08T10:17:58.000Z</time>
      </trkpt>
      <trkpt lat="47.84959" lon="7.11893">
        <ele>927.57</ele>
        <time>2016-02-08T10:18:20.000Z</time>
      </trkpt>
      <trkpt lat="47.84974" lon="7.11908">
        <ele>927.06</ele>
        <time>2016-02-08T10:18:41.000Z</time>
      </trkpt>
      <trkpt lat="47.84985" lon="7.1191">
        <ele>926.84</ele>
        <time>2016-02-08T10:18:51.000Z</time>
      </trkpt>
      <trkpt lat="47.85043" lon="7.11889">
        <ele>925.36</ele>
        <time>2016-02-08T10:19:45.000Z</time>
      </trkpt>
      <trkpt lat="47.85078" lon="7.1192">
        <ele>926.84</ele>
        <time>2016-02-08T10:20:29.000Z</time>
      </trkpt>
      <trkpt lat="47.85178" lon="7.11966">
        <ele>927.34</ele>
        <time>2016-02-08T10:22:01.000Z</time>
      </trkpt>
      <trkpt lat="47.85202" lon="7.11968">
        <ele>928.82</ele>
        <time>2016-02-08T10:22:27.000Z</time>
      </trkpt>
      <trkpt lat="47.85212" lon="7.11949">
        <ele>929.72</ele>
        <time>2016-02-08T10:23:58.000Z</time>
      </trkpt>
      <trkpt lat="47.85255" lon="7.11986">
        <ele>930.19</ele>
        <time>2016-02-08T10:24:51.000Z</time>
      </trkpt>
      <trkpt lat="47.8527" lon="7.12015">
        <ele>931.11</ele>
        <time>2016-02-08T10:25:12.000Z</time>
      </trkpt>
      <trkpt lat="47.85288" lon="7.12037">
        <ele>931.25</ele>
        <time>2016-02-08T10:25:31.000Z</time>
      </trkpt>
      <trkpt lat="47.85306" lon="7.12081">
        <ele>931.27</ele>
        <time>2016-02-08T10:26:01.000Z</time>
      </trkpt>
      <trkpt lat="47.85437" lon="7.12269">
        <ele>932.44</ele>
        <time>2016-02-08T10:28:49.000Z</time>
      </trkpt>
      <trkpt lat="47.85486" lon="7.12306">
        <ele>932.44</ele>
        <time>2016-02-08T10:29:35.000Z</time>
      </trkpt>
      <trkpt lat="47.85535" lon="7.12376">
        <ele>932.44</ele>
        <time>2016-02-08T10:30:37.000Z</time>
      </trkpt>
      <trkpt lat="47.85545" lon="7.12383">
        <ele>932.67</ele>
        <time>2016-02-08T10:30:45.000Z</time>
      </trkpt>
      <trkpt lat="47.8557" lon="7.12431">
        <ele>933.18</ele>
        <time>2016-02-08T10:31:21.000Z</time>
      </trkpt>
      <trkpt lat="47.85589" lon="7.12445">
        <ele>933.25</ele>
        <time>2016-02-08T10:31:40.000Z</time>
      </trkpt>
      <trkpt lat="47.85611" lon="7.12472">
        <ele>933.32</ele>
        <time>2016-02-08T10:32:05.000Z</time>
      </trkpt>
      <trkpt lat="47.85684" lon="7.12524">
        <ele>935.29</ele>
        <time>2016-02-08T10:33:17.000Z</time>
      </trkpt>
      <trkpt lat="47.85691" lon="7.12533">
        <ele>936.46</ele>
        <time>2016-02-08T10:33:29.000Z</time>
      </trkpt>
      <trkpt lat="47.85828" lon="7.12561">
        <ele>937.14</ele>
        <time>2016-02-08T10:35:21.000Z</time>
      </trkpt>
      <trkpt lat="47.85851" lon="7.12553">
        <ele>937.14</ele>
        <time>2016-02-08T10:35:39.000Z</time>
      </trkpt>
      <trkpt lat="47.85868" lon="7.12522">
        <ele>937.14</ele>
        <time>2016-02-08T10:35:59.000Z</time>
      </trkpt>
      <trkpt lat="47.85908" lon="7.12412">
        <ele>936.77</ele>
        <time>2016-02-08T10:37:05.000Z</time>
      </trkpt>
      <trkpt lat="47.85911" lon="7.12393">
        <ele>936.46</ele>
        <time>2016-02-08T10:37:18.000Z</time>
      </trkpt>
      <trkpt lat="47.85914" lon="7.12295">
        <ele>936.46</ele>
        <time>2016-02-08T10:38:14.000Z</time>
      </trkpt>
      <trkpt lat="47.86005" lon="7.12054">
        <ele>939.69</ele>
        <time>2016-02-08T10:41:09.000Z</time>
      </trkpt>
      <trkpt lat="47.86032" lon="7.12003">
        <ele>945.28</ele>
        <time>2016-02-08T10:41:42.000Z</time>
      </trkpt>
      <trkpt lat="47.8605" lon="7.11977">
        <ele>945.28</ele>
        <time>2016-02-08T10:42:04.000Z</time>
      </trkpt>
      <trkpt lat="47.86063" lon="7.11998">
        <ele>945.99</ele>
        <time>2016-02-08T10:42:23.000Z</time>
      </trkpt>
      <trkpt lat="47.86081" lon="7.12057">
        <ele>946.48</ele>
        <time>2016-02-08T10:43:01.000Z</time>
      </trkpt>
      <trkpt lat="47.86093" lon="7.12081">
        <ele>946.48</ele>
        <time>2016-02-08T10:43:19.000Z</time>
      </trkpt>
      <trkpt lat="47.86097" lon="7.12097">
        <ele>946.43</ele>
        <time>2016-02-08T10:43:28.000Z</time>
      </trkpt>
      <trkpt lat="47.8617" lon="7.12217">
        <ele>944.5</ele>
        <time>2016-02-08T10:45:02.000Z</time>
      </trkpt>
      <trkpt lat="47.86209" lon="7.12256">
        <ele>941.83</ele>
        <time>2016-02-08T10:45:49.000Z</time>
      </trkpt>
      <trkpt lat="47.86224" lon="7.12263">
        <ele>939.76</ele>
        <time>2016-02-08T10:45:59.000Z</time>
      </trkpt>
      <trkpt lat="47.86259" lon="7.12299">
        <ele>938.44</ele>
        <time>2016-02-08T10:46:40.000Z</time>
      </trkpt>
      <trkpt lat="47.86285" lon="7.12305">
        <ele>936.94</ele>
        <time>2016-02-08T10:47:04.000Z</time>
      </trkpt>
      <trkpt lat="47.86302" lon="7.12305">
        <ele>936.08</ele>
        <time>2016-02-08T10:47:19.000Z</time>
      </trkpt>
      <trkpt lat="47.86316" lon="7.12311">
        <ele>935.14</ele>
        <time>2016-02-08T10:47:32.000Z</time>
      </trkpt>
      <trkpt lat="47.86326" lon="7.1232">
        <ele>935.14</ele>
        <time>2016-02-08T10:50:42.000Z</time>
      </trkpt>
      <trkpt lat="47.86335" lon="7.12322">
        <ele>935.5</ele>
        <time>2016-02-08T10:51:12.000Z</time>
      </trkpt>
      <trkpt lat="47.86305" lon="7.12307">
        <ele>936.08</ele>
        <time>2016-02-08T10:52:29.000Z</time>
      </trkpt>
      <trkpt lat="47.8627" lon="7.12301">
        <ele>936.62</ele>
        <time>2016-02-08T10:53:22.000Z</time>
      </trkpt>
      <trkpt lat="47.8626" lon="7.12296">
        <ele>939.63</ele>
        <time>2016-02-08T10:53:34.000Z</time>
      </trkpt>
      <trkpt lat="47.86264" lon="7.12312">
        <ele>945</ele>
        <time>2016-02-08T10:54:03.000Z</time>
      </trkpt>
      <trkpt lat="47.8627" lon="7.12335">
        <ele>946.18</ele>
        <time>2016-02-08T10:54:21.000Z</time>
      </trkpt>
      <trkpt lat="47.86275" lon="7.12344">
        <ele>949.21</ele>
        <time>2016-02-08T10:54:31.000Z</time>
      </trkpt>
      <trkpt lat="47.86279" lon="7.12356">
        <ele>951.02</ele>
        <time>2016-02-08T10:54:44.000Z</time>
      </trkpt>
      <trkpt lat="47.86261" lon="7.12349">
        <ele>955.96</ele>
        <time>2016-02-08T10:55:18.000Z</time>
      </trkpt>
      <trkpt lat="47.86232" lon="7.12337">
        <ele>963.17</ele>
        <time>2016-02-08T10:56:10.000Z</time>
      </trkpt>
      <trkpt lat="47.86218" lon="7.12323">
        <ele>965.34</ele>
        <time>2016-02-08T10:56:30.000Z</time>
      </trkpt>
      <trkpt lat="47.86201" lon="7.12313">
        <ele>968.07</ele>
        <time>2016-02-08T10:56:50.000Z</time>
      </trkpt>
      <trkpt lat="47.86188" lon="7.12312">
        <ele>973.65</ele>
        <time>2016-02-08T10:57:24.000Z</time>
      </trkpt>
      <trkpt lat="47.86168" lon="7.12313">
        <ele>980.27</ele>
        <time>2016-02-08T10:57:58.000Z</time>
      </trkpt>
      <trkpt lat="47.8616" lon="7.12316">
        <ele>983.4</ele>
        <time>2016-02-08T10:58:14.000Z</time>
      </trkpt>
      <trkpt lat="47.86167" lon="7.12343">
        <ele>986.24</ele>
        <time>2016-02-08T10:58:40.000Z</time>
      </trkpt>
      <trkpt lat="47.86174" lon="7.12364">
        <ele>989.26</ele>
        <time>2016-02-08T10:58:59.000Z</time>
      </trkpt>
      <trkpt lat="47.86177" lon="7.12379">
        <ele>992.59</ele>
        <time>2016-02-08T10:59:17.000Z</time>
      </trkpt>
      <trkpt lat="47.8618" lon="7.1239">
        <ele>995.72</ele>
        <time>2016-02-08T10:59:34.000Z</time>
      </trkpt>
      <trkpt lat="47.86172" lon="7.12403">
        <ele>1000.95</ele>
        <time>2016-02-08T11:00:11.000Z</time>
      </trkpt>
      <trkpt lat="47.8616" lon="7.12406">
        <ele>1007.28</ele>
        <time>2016-02-08T11:00:37.000Z</time>
      </trkpt>
      <trkpt lat="47.8615" lon="7.12399">
        <ele>1011.33</ele>
        <time>2016-02-08T11:01:04.000Z</time>
      </trkpt>
      <trkpt lat="47.86137" lon="7.1239">
        <ele>1017.53</ele>
        <time>2016-02-08T11:01:32.000Z</time>
      </trkpt>
      <trkpt lat="47.86108" lon="7.12366">
        <ele>1026.7</ele>
        <time>2016-02-08T11:02:32.000Z</time>
      </trkpt>
      <trkpt lat="47.86094" lon="7.12354">
        <ele>1031.48</ele>
        <time>2016-02-08T11:03:03.000Z</time>
      </trkpt>
      <trkpt lat="47.86071" lon="7.12383">
        <ele>1037.68</ele>
        <time>2016-02-08T11:03:48.000Z</time>
      </trkpt>
      <trkpt lat="47.86071" lon="7.12432">
        <ele>1041.33</ele>
        <time>2016-02-08T11:04:26.000Z</time>
      </trkpt>
      <trkpt lat="47.86064" lon="7.1254">
        <ele>1043.32</ele>
        <time>2016-02-08T11:05:35.000Z</time>
      </trkpt>
      <trkpt lat="47.85997" lon="7.12738">
        <ele>1044.02</ele>
        <time>2016-02-08T11:07:55.000Z</time>
      </trkpt>
      <trkpt lat="47.85952" lon="7.12876">
        <ele>1044.83</ele>
        <time>2016-02-08T11:09:20.000Z</time>
      </trkpt>
      <trkpt lat="47.8593" lon="7.12904">
        <ele>1046.53</ele>
        <time>2016-02-08T11:09:53.000Z</time>
      </trkpt>
      <trkpt lat="47.8591" lon="7.12922">
        <ele>1052.62</ele>
        <time>2016-02-08T11:10:28.000Z</time>
      </trkpt>
      <trkpt lat="47.85881" lon="7.12949">
        <ele>1059.7</ele>
        <time>2016-02-08T11:11:23.000Z</time>
      </trkpt>
      <trkpt lat="47.85865" lon="7.1297">
        <ele>1064.38</ele>
        <time>2016-02-08T11:12:01.000Z</time>
      </trkpt>
      <trkpt lat="47.85843" lon="7.12986">
        <ele>1073.66</ele>
        <time>2016-02-08T11:12:46.000Z</time>
      </trkpt>
      <trkpt lat="47.85815" lon="7.13024">
        <ele>1085.85</ele>
        <time>2016-02-08T11:13:58.000Z</time>
      </trkpt>
      <trkpt lat="47.8579" lon="7.13048">
        <ele>1093.76</ele>
        <time>2016-02-08T11:14:46.000Z</time>
      </trkpt>
      <trkpt lat="47.85778" lon="7.13065">
        <ele>1099.77</ele>
        <time>2016-02-08T11:15:14.000Z</time>
      </trkpt>
      <trkpt lat="47.85773" lon="7.13089">
        <ele>1103.3</ele>
        <time>2016-02-08T11:15:39.000Z</time>
      </trkpt>
      <trkpt lat="47.85767" lon="7.13125">
        <ele>1109.33</ele>
        <time>2016-02-08T11:16:14.000Z</time>
      </trkpt>
      <trkpt lat="47.85764" lon="7.1314">
        <ele>1109.33</ele>
        <time>2016-02-08T11:16:34.000Z</time>
      </trkpt>
      <trkpt lat="47.8575" lon="7.13167">
        <ele>1109.33</ele>
        <time>2016-02-08T11:16:55.000Z</time>
      </trkpt>
      <trkpt lat="47.85699" lon="7.13188">
        <ele>1106.62</ele>
        <time>2016-02-08T11:18:32.000Z</time>
      </trkpt>
      <trkpt lat="47.85644" lon="7.13188">
        <ele>1100.64</ele>
        <time>2016-02-08T11:19:25.000Z</time>
      </trkpt>
      <trkpt lat="47.85576" lon="7.1326">
        <ele>1091.85</ele>
        <time>2016-02-08T11:20:43.000Z</time>
      </trkpt>
      <trkpt lat="47.85552" lon="7.13288">
        <ele>1088.03</ele>
        <time>2016-02-08T11:21:09.000Z</time>
      </trkpt>
      <trkpt lat="47.85511" lon="7.13334">
        <ele>1083.63</ele>
        <time>2016-02-08T11:21:53.000Z</time>
      </trkpt>
      <trkpt lat="47.85481" lon="7.13371">
        <ele>1080.07</ele>
        <time>2016-02-08T11:22:27.000Z</time>
      </trkpt>
      <trkpt lat="47.85456" lon="7.13412">
        <ele>1074.55</ele>
        <time>2016-02-08T11:23:00.000Z</time>
      </trkpt>
      <trkpt lat="47.85436" lon="7.13438">
        <ele>1073.58</ele>
        <time>2016-02-08T11:23:24.000Z</time>
      </trkpt>
      <trkpt lat="47.8541" lon="7.13462">
        <ele>1073.58</ele>
        <time>2016-02-08T11:23:50.000Z</time>
      </trkpt>
      <trkpt lat="47.85394" lon="7.13489">
        <ele>1073.58</ele>
        <time>2016-02-08T11:24:28.000Z</time>
      </trkpt>
      <trkpt lat="47.85333" lon="7.13538">
        <ele>1074</ele>
        <time>2016-02-08T11:25:50.000Z</time>
      </trkpt>
      <trkpt lat="47.85322" lon="7.13556">
        <ele>1074</ele>
        <time>2016-02-08T11:26:03.000Z</time>
      </trkpt>
      <trkpt lat="47.85321" lon="7.13582">
        <ele>1074</ele>
        <time>2016-02-08T11:26:31.000Z</time>
      </trkpt>
      <trkpt lat="47.85335" lon="7.13577">
        <ele>1068.56</ele>
        <time>2016-02-08T11:26:48.000Z</time>
      </trkpt>
      <trkpt lat="47.85386" lon="7.13533">
        <ele>1066.25</ele>
        <time>2016-02-08T11:30:55.000Z</time>
      </trkpt>
      <trkpt lat="47.85386" lon="7.13505">
        <ele>1066.14</ele>
        <time>2016-02-08T11:56:03.000Z</time>
      </trkpt>
      <trkpt lat="47.85389" lon="7.13506">
        <ele>1021.08</ele>
        <time>2016-02-08T11:56:04.000Z</time>
      </trkpt>
      <trkpt lat="47.85369" lon="7.13529">
        <ele>1021.08</ele>
        <time>2016-02-08T11:56:23.000Z</time>
      </trkpt>
      <trkpt lat="47.85376" lon="7.13545">
        <ele>1021.08</ele>
        <time>2016-02-08T11:58:08.000Z</time>
      </trkpt>
      <trkpt lat="47.85279" lon="7.13621">
        <ele>1021.08</ele>
        <time>2016-02-08T12:00:16.000Z</time>
      </trkpt>
      <trkpt lat="47.85266" lon="7.13641">
        <ele>1021.08</ele>
        <time>2016-02-08T12:00:40.000Z</time>
      </trkpt>
      <trkpt lat="47.85268" lon="7.13668">
        <ele>1017.81</ele>
        <time>2016-02-08T12:01:10.000Z</time>
      </trkpt>
      <trkpt lat="47.85266" lon="7.13679">
        <ele>1014.81</ele>
        <time>2016-02-08T12:01:22.000Z</time>
      </trkpt>
      <trkpt lat="47.85258" lon="7.13698">
        <ele>1011.67</ele>
        <time>2016-02-08T12:01:43.000Z</time>
      </trkpt>
      <trkpt lat="47.85251" lon="7.13715">
        <ele>1007.9</ele>
        <time>2016-02-08T12:02:00.000Z</time>
      </trkpt>
      <trkpt lat="47.85236" lon="7.1374">
        <ele>1001.4</ele>
        <time>2016-02-08T12:02:18.000Z</time>
      </trkpt>
      <trkpt lat="47.85218" lon="7.13785">
        <ele>996.49</ele>
        <time>2016-02-08T12:02:51.000Z</time>
      </trkpt>
      <trkpt lat="47.8522" lon="7.13806">
        <ele>993.31</ele>
        <time>2016-02-08T12:03:09.000Z</time>
      </trkpt>
      <trkpt lat="47.85218" lon="7.13821">
        <ele>990.17</ele>
        <time>2016-02-08T12:03:18.000Z</time>
      </trkpt>
      <trkpt lat="47.85212" lon="7.13842">
        <ele>987.02</ele>
        <time>2016-02-08T12:03:28.000Z</time>
      </trkpt>
      <trkpt lat="47.85208" lon="7.13862">
        <ele>985.75</ele>
        <time>2016-02-08T12:03:47.000Z</time>
      </trkpt>
      <trkpt lat="47.85205" lon="7.13884">
        <ele>983.68</ele>
        <time>2016-02-08T12:04:02.000Z</time>
      </trkpt>
      <trkpt lat="47.85205" lon="7.13897">
        <ele>979.13</ele>
        <time>2016-02-08T12:04:13.000Z</time>
      </trkpt>
      <trkpt lat="47.85197" lon="7.13925">
        <ele>978.42</ele>
        <time>2016-02-08T12:04:33.000Z</time>
      </trkpt>
      <trkpt lat="47.85196" lon="7.13941">
        <ele>975.77</ele>
        <time>2016-02-08T12:04:46.000Z</time>
      </trkpt>
      <trkpt lat="47.85196" lon="7.1396">
        <ele>972.53</ele>
        <time>2016-02-08T12:04:59.000Z</time>
      </trkpt>
      <trkpt lat="47.85192" lon="7.13972">
        <ele>969.4</ele>
        <time>2016-02-08T12:05:09.000Z</time>
      </trkpt>
      <trkpt lat="47.85185" lon="7.14002">
        <ele>966.83</ele>
        <time>2016-02-08T12:05:28.000Z</time>
      </trkpt>
      <trkpt lat="47.85172" lon="7.14027">
        <ele>963.42</ele>
        <time>2016-02-08T12:05:57.000Z</time>
      </trkpt>
      <trkpt lat="47.85168" lon="7.14039">
        <ele>960.4</ele>
        <time>2016-02-08T12:06:04.000Z</time>
      </trkpt>
      <trkpt lat="47.85159" lon="7.14059">
        <ele>957.96</ele>
        <time>2016-02-08T12:06:14.000Z</time>
      </trkpt>
      <trkpt lat="47.85146" lon="7.14085">
        <ele>957.1</ele>
        <time>2016-02-08T12:06:35.000Z</time>
      </trkpt>
      <trkpt lat="47.85135" lon="7.14138">
        <ele>953.12</ele>
        <time>2016-02-08T12:07:17.000Z</time>
      </trkpt>
      <trkpt lat="47.85126" lon="7.14154">
        <ele>950.09</ele>
        <time>2016-02-08T12:07:32.000Z</time>
      </trkpt>
      <trkpt lat="47.85125" lon="7.14175">
        <ele>946.68</ele>
        <time>2016-02-08T12:07:49.000Z</time>
      </trkpt>
      <trkpt lat="47.85122" lon="7.14188">
        <ele>943.56</ele>
        <time>2016-02-08T12:07:59.000Z</time>
      </trkpt>
      <trkpt lat="47.85124" lon="7.1421">
        <ele>940.47</ele>
        <time>2016-02-08T12:08:17.000Z</time>
      </trkpt>
      <trkpt lat="47.85121" lon="7.14228">
        <ele>936.9</ele>
        <time>2016-02-08T12:08:34.000Z</time>
      </trkpt>
      <trkpt lat="47.85119" lon="7.14242">
        <ele>933.79</ele>
        <time>2016-02-08T12:08:45.000Z</time>
      </trkpt>
      <trkpt lat="47.85117" lon="7.14261">
        <ele>930.72</ele>
        <time>2016-02-08T12:08:58.000Z</time>
      </trkpt>
      <trkpt lat="47.85103" lon="7.14297">
        <ele>926.52</ele>
        <time>2016-02-08T12:09:24.000Z</time>
      </trkpt>
      <trkpt lat="47.85102" lon="7.14319">
        <ele>923.21</ele>
        <time>2016-02-08T12:09:39.000Z</time>
      </trkpt>
      <trkpt lat="47.85097" lon="7.1435">
        <ele>923.05</ele>
        <time>2016-02-08T12:10:01.000Z</time>
      </trkpt>
      <trkpt lat="47.85099" lon="7.14376">
        <ele>916.47</ele>
        <time>2016-02-08T12:10:36.000Z</time>
      </trkpt>
      <trkpt lat="47.85099" lon="7.14395">
        <ele>910.03</ele>
        <time>2016-02-08T12:10:55.000Z</time>
      </trkpt>
      <trkpt lat="47.85099" lon="7.14404">
        <ele>906.78</ele>
        <time>2016-02-08T12:11:04.000Z</time>
      </trkpt>
      <trkpt lat="47.85094" lon="7.14433">
        <ele>902.76</ele>
        <time>2016-02-08T12:11:36.000Z</time>
      </trkpt>
      <trkpt lat="47.85085" lon="7.14454">
        <ele>896.52</ele>
        <time>2016-02-08T12:11:55.000Z</time>
      </trkpt>
      <trkpt lat="47.85077" lon="7.14469">
        <ele>893.88</ele>
        <time>2016-02-08T12:12:05.000Z</time>
      </trkpt>
      <trkpt lat="47.85065" lon="7.14483">
        <ele>890.67</ele>
        <time>2016-02-08T12:12:20.000Z</time>
      </trkpt>
      <trkpt lat="47.8504" lon="7.14495">
        <ele>887.15</ele>
        <time>2016-02-08T12:12:50.000Z</time>
      </trkpt>
      <trkpt lat="47.85003" lon="7.14478">
        <ele>887.15</ele>
        <time>2016-02-08T12:13:31.000Z</time>
      </trkpt>
      <trkpt lat="47.84988" lon="7.14464">
        <ele>885.77</ele>
        <time>2016-02-08T12:13:51.000Z</time>
      </trkpt>
      <trkpt lat="47.84977" lon="7.14443">
        <ele>884.01</ele>
        <time>2016-02-08T12:14:11.000Z</time>
      </trkpt>
      <trkpt lat="47.84871" lon="7.14335">
        <ele>878.67</ele>
        <time>2016-02-08T12:16:16.000Z</time>
      </trkpt>
      <trkpt lat="47.84848" lon="7.14325">
        <ele>874.91</ele>
        <time>2016-02-08T12:16:42.000Z</time>
      </trkpt>
      <trkpt lat="47.84833" lon="7.14317">
        <ele>872.64</ele>
        <time>2016-02-08T12:16:56.000Z</time>
      </trkpt>
      <trkpt lat="47.84782" lon="7.14264">
        <ele>868.71</ele>
        <time>2016-02-08T12:18:05.000Z</time>
      </trkpt>
      <trkpt lat="47.84767" lon="7.14247">
        <ele>868.63</ele>
        <time>2016-02-08T12:18:25.000Z</time>
      </trkpt>
      <trkpt lat="47.84755" lon="7.14222">
        <ele>868.18</ele>
        <time>2016-02-08T12:18:46.000Z</time>
      </trkpt>
      <trkpt lat="47.84733" lon="7.14211">
        <ele>867.13</ele>
        <time>2016-02-08T12:19:07.000Z</time>
      </trkpt>
      <trkpt lat="47.84724" lon="7.14203">
        <ele>865.95</ele>
        <time>2016-02-08T12:19:28.000Z</time>
      </trkpt>
      <trkpt lat="47.84665" lon="7.14245">
        <ele>841.21</ele>
        <time>2016-02-08T12:21:37.000Z</time>
      </trkpt>
      <trkpt lat="47.84642" lon="7.14239">
        <ele>837.25</ele>
        <time>2016-02-08T12:22:12.000Z</time>
      </trkpt>
      <trkpt lat="47.84606" lon="7.14248">
        <ele>825.06</ele>
        <time>2016-02-08T12:23:06.000Z</time>
      </trkpt>
      <trkpt lat="47.84571" lon="7.14278">
        <ele>819.24</ele>
        <time>2016-02-08T12:23:42.000Z</time>
      </trkpt>
      <trkpt lat="47.84544" lon="7.14291">
        <ele>814.28</ele>
        <time>2016-02-08T12:24:19.000Z</time>
      </trkpt>
      <trkpt lat="47.84549" lon="7.14256">
        <ele>812.2</ele>
        <time>2016-02-08T12:25:07.000Z</time>
      </trkpt>
      <trkpt lat="47.84564" lon="7.14201">
        <ele>803.05</ele>
        <time>2016-02-08T12:25:36.000Z</time>
      </trkpt>
      <trkpt lat="47.84567" lon="7.14177">
        <ele>799.7</ele>
        <time>2016-02-08T12:25:47.000Z</time>
      </trkpt>
      <trkpt lat="47.84567" lon="7.14156">
        <ele>796.61</ele>
        <time>2016-02-08T12:25:57.000Z</time>
      </trkpt>
      <trkpt lat="47.84568" lon="7.14091">
        <ele>791.36</ele>
        <time>2016-02-08T12:26:30.000Z</time>
      </trkpt>
      <trkpt lat="47.8457" lon="7.14063">
        <ele>785.05</ele>
        <time>2016-02-08T12:26:45.000Z</time>
      </trkpt>
      <trkpt lat="47.84574" lon="7.14025">
        <ele>785.05</ele>
        <time>2016-02-08T12:27:09.000Z</time>
      </trkpt>
      <trkpt lat="47.8459" lon="7.14">
        <ele>785.05</ele>
        <time>2016-02-08T12:27:30.000Z</time>
      </trkpt>
      <trkpt lat="47.84588" lon="7.13976">
        <ele>784.62</ele>
        <time>2016-02-08T12:27:51.000Z</time>
      </trkpt>
      <trkpt lat="47.84592" lon="7.13923">
        <ele>780.33</ele>
        <time>2016-02-08T12:28:26.000Z</time>
      </trkpt>
      <trkpt lat="47.84595" lon="7.13871">
        <ele>775.75</ele>
        <time>2016-02-08T12:29:16.000Z</time>
      </trkpt>
      <trkpt lat="47.84582" lon="7.13869">
        <ele>773.12</ele>
        <time>2016-02-08T12:29:41.000Z</time>
      </trkpt>
      <trkpt lat="47.84587" lon="7.13844">
        <ele>772.26</ele>
        <time>2016-02-08T12:30:22.000Z</time>
      </trkpt>
      <trkpt lat="47.84579" lon="7.13808">
        <ele>771.96</ele>
        <time>2016-02-08T12:30:44.000Z</time>
      </trkpt>
      <trkpt lat="47.84569" lon="7.13803">
        <ele>769.49</ele>
        <time>2016-02-08T12:30:52.000Z</time>
      </trkpt>
      <trkpt lat="47.84544" lon="7.138">
        <ele>769.21</ele>
        <time>2016-02-08T12:31:13.000Z</time>
      </trkpt>
      <trkpt lat="47.84506" lon="7.13772">
        <ele>768.78</ele>
        <time>2016-02-08T12:31:47.000Z</time>
      </trkpt>
      <trkpt lat="47.84473" lon="7.13759">
        <ele>768.78</ele>
        <time>2016-02-08T12:32:14.000Z</time>
      </trkpt>
      <trkpt lat="47.8445" lon="7.13732">
        <ele>766.03</ele>
        <time>2016-02-08T12:32:35.000Z</time>
      </trkpt>
      <trkpt lat="47.84433" lon="7.137">
        <ele>764.54</ele>
        <time>2016-02-08T12:32:53.000Z</time>
      </trkpt>
      <trkpt lat="47.84419" lon="7.13657">
        <ele>760.78</ele>
        <time>2016-02-08T12:33:18.000Z</time>
      </trkpt>
      <trkpt lat="47.84387" lon="7.13564">
        <ele>755.73</ele>
        <time>2016-02-08T12:34:12.000Z</time>
      </trkpt>
      <trkpt lat="47.84385" lon="7.1355">
        <ele>753.14</ele>
        <time>2016-02-08T12:34:20.000Z</time>
      </trkpt>
      <trkpt lat="47.8438" lon="7.13531">
        <ele>753.14</ele>
        <time>2016-02-08T12:34:29.000Z</time>
      </trkpt>
      <trkpt lat="47.8438" lon="7.13511">
        <ele>753.1</ele>
        <time>2016-02-08T12:34:38.000Z</time>
      </trkpt>
      <trkpt lat="47.84378" lon="7.13496">
        <ele>751.28</ele>
        <time>2016-02-08T12:34:45.000Z</time>
      </trkpt>
      <trkpt lat="47.84378" lon="7.13481">
        <ele>751.28</ele>
        <time>2016-02-08T12:34:51.000Z</time>
      </trkpt>
      <trkpt lat="47.84384" lon="7.13463">
        <ele>747.48</ele>
        <time>2016-02-08T12:35:01.000Z</time>
      </trkpt>
      <trkpt lat="47.84375" lon="7.13446">
        <ele>744.65</ele>
        <time>2016-02-08T12:35:14.000Z</time>
      </trkpt>
      <trkpt lat="47.84339" lon="7.13431">
        <ele>737.69</ele>
        <time>2016-02-08T12:36:01.000Z</time>
      </trkpt>
      <trkpt lat="47.84303" lon="7.13438">
        <ele>734.78</ele>
        <time>2016-02-08T12:36:26.000Z</time>
      </trkpt>
      <trkpt lat="47.84269" lon="7.13484">
        <ele>730.95</ele>
        <time>2016-02-08T12:36:58.000Z</time>
      </trkpt>
      <trkpt lat="47.84261" lon="7.13503">
        <ele>727.95</ele>
        <time>2016-02-08T12:37:18.000Z</time>
      </trkpt>
      <trkpt lat="47.84219" lon="7.13539">
        <ele>723.9</ele>
        <time>2016-02-08T12:37:51.000Z</time>
      </trkpt>
      <trkpt lat="47.84187" lon="7.13613">
        <ele>715.01</ele>
        <time>2016-02-08T12:38:37.000Z</time>
      </trkpt>
      <trkpt lat="47.8417" lon="7.13639">
        <ele>712.37</ele>
        <time>2016-02-08T12:38:55.000Z</time>
      </trkpt>
      <trkpt lat="47.84159" lon="7.13672">
        <ele>711.1</ele>
        <time>2016-02-08T12:39:14.000Z</time>
      </trkpt>
      <trkpt lat="47.84161" lon="7.13693">
        <ele>708.93</ele>
        <time>2016-02-08T12:39:28.000Z</time>
      </trkpt>
      <trkpt lat="47.84156" lon="7.1371">
        <ele>706.5</ele>
        <time>2016-02-08T12:39:36.000Z</time>
      </trkpt>
      <trkpt lat="47.84155" lon="7.13734">
        <ele>706.32</ele>
        <time>2016-02-08T12:39:49.000Z</time>
      </trkpt>
      <trkpt lat="47.84152" lon="7.13749">
        <ele>704.15</ele>
        <time>2016-02-08T12:39:56.000Z</time>
      </trkpt>
      <trkpt lat="47.8415" lon="7.13771">
        <ele>702.11</ele>
        <time>2016-02-08T12:40:08.000Z</time>
      </trkpt>
      <trkpt lat="47.84143" lon="7.13787">
        <ele>700.27</ele>
        <time>2016-02-08T12:40:18.000Z</time>
      </trkpt>
      <trkpt lat="47.84139" lon="7.13802">
        <ele>699.49</ele>
        <time>2016-02-08T12:40:27.000Z</time>
      </trkpt>
      <trkpt lat="47.84132" lon="7.13818">
        <ele>696.73</ele>
        <time>2016-02-08T12:40:38.000Z</time>
      </trkpt>
      <trkpt lat="47.84084" lon="7.13843">
        <ele>689</ele>
        <time>2016-02-08T12:41:24.000Z</time>
      </trkpt>
      <trkpt lat="47.84001" lon="7.13886">
        <ele>677.16</ele>
        <time>2016-02-08T12:42:28.000Z</time>
      </trkpt>
      <trkpt lat="47.83961" lon="7.13869">
        <ele>674.12</ele>
        <time>2016-02-08T12:43:04.000Z</time>
      </trkpt>
      <trkpt lat="47.83917" lon="7.13862">
        <ele>669.38</ele>
        <time>2016-02-08T12:43:47.000Z</time>
      </trkpt>
      <trkpt lat="47.83889" lon="7.13852">
        <ele>665.07</ele>
        <time>2016-02-08T12:44:11.000Z</time>
      </trkpt>
      <trkpt lat="47.83854" lon="7.13894">
        <ele>660.51</ele>
        <time>2016-02-08T12:44:39.000Z</time>
      </trkpt>
      <trkpt lat="47.83834" lon="7.13946">
        <ele>656.1</ele>
        <time>2016-02-08T12:45:14.000Z</time>
      </trkpt>
      <trkpt lat="47.83832" lon="7.1396">
        <ele>655.25</ele>
        <time>2016-02-08T12:45:24.000Z</time>
      </trkpt>
      <trkpt lat="47.83781" lon="7.13988">
        <ele>648.87</ele>
        <time>2016-02-08T12:46:06.000Z</time>
      </trkpt>
      <trkpt lat="47.83752" lon="7.13985">
        <ele>645.04</ele>
        <time>2016-02-08T12:46:25.000Z</time>
      </trkpt>
      <trkpt lat="47.83733" lon="7.13971">
        <ele>643.95</ele>
        <time>2016-02-08T12:46:44.000Z</time>
      </trkpt>
      <trkpt lat="47.83721" lon="7.1397">
        <ele>642.94</ele>
        <time>2016-02-08T12:46:50.000Z</time>
      </trkpt>
      <trkpt lat="47.83702" lon="7.13975">
        <ele>640.64</ele>
        <time>2016-02-08T12:47:05.000Z</time>
      </trkpt>
      <trkpt lat="47.8368" lon="7.14005">
        <ele>638.63</ele>
        <time>2016-02-08T12:47:25.000Z</time>
      </trkpt>
      <trkpt lat="47.83677" lon="7.14021">
        <ele>636.97</ele>
        <time>2016-02-08T12:47:31.000Z</time>
      </trkpt>
      <trkpt lat="47.83681" lon="7.1404">
        <ele>635.16</ele>
        <time>2016-02-08T12:47:42.000Z</time>
      </trkpt>
      <trkpt lat="47.83678" lon="7.14067">
        <ele>633.36</ele>
        <time>2016-02-08T12:47:56.000Z</time>
      </trkpt>
      <trkpt lat="47.83668" lon="7.1409">
        <ele>632.02</ele>
        <time>2016-02-08T12:48:09.000Z</time>
      </trkpt>
      <trkpt lat="47.83657" lon="7.14161">
        <ele>624.13</ele>
        <time>2016-02-08T12:48:48.000Z</time>
      </trkpt>
      <trkpt lat="47.83657" lon="7.14173">
        <ele>623.07</ele>
        <time>2016-02-08T12:48:54.000Z</time>
      </trkpt>
      <trkpt lat="47.83645" lon="7.14204">
        <ele>622.29</ele>
        <time>2016-02-08T12:49:15.000Z</time>
      </trkpt>
      <trkpt lat="47.83634" lon="7.14223">
        <ele>621.99</ele>
        <time>2016-02-08T12:49:27.000Z</time>
      </trkpt>
      <trkpt lat="47.83593" lon="7.14264">
        <ele>614.21</ele>
        <time>2016-02-08T12:50:01.000Z</time>
      </trkpt>
      <trkpt lat="47.83575" lon="7.14265">
        <ele>612.15</ele>
        <time>2016-02-08T12:50:21.000Z</time>
      </trkpt>
      <trkpt lat="47.83534" lon="7.14234">
        <ele>609.48</ele>
        <time>2016-02-08T12:50:56.000Z</time>
      </trkpt>
      <trkpt lat="47.83503" lon="7.14232">
        <ele>608.32</ele>
        <time>2016-02-08T12:51:19.000Z</time>
      </trkpt>
      <trkpt lat="47.83482" lon="7.14238">
        <ele>607.81</ele>
        <time>2016-02-08T12:51:35.000Z</time>
      </trkpt>
      <trkpt lat="47.83453" lon="7.14272">
        <ele>606.76</ele>
        <time>2016-02-08T12:52:03.000Z</time>
      </trkpt>
      <trkpt lat="47.83443" lon="7.14292">
        <ele>605.36</ele>
        <time>2016-02-08T12:52:19.000Z</time>
      </trkpt>
      <trkpt lat="47.83433" lon="7.14332">
        <ele>602.46</ele>
        <time>2016-02-08T12:52:40.000Z</time>
      </trkpt>
      <trkpt lat="47.83432" lon="7.14346">
        <ele>600.96</ele>
        <time>2016-02-08T12:52:46.000Z</time>
      </trkpt>
      <trkpt lat="47.83435" lon="7.14364">
        <ele>599.48</ele>
        <time>2016-02-08T12:52:55.000Z</time>
      </trkpt>
      <trkpt lat="47.8345" lon="7.144">
        <ele>596.69</ele>
        <time>2016-02-08T12:53:14.000Z</time>
      </trkpt>
      <trkpt lat="47.83453" lon="7.14425">
        <ele>594.34</ele>
        <time>2016-02-08T12:53:27.000Z</time>
      </trkpt>
      <trkpt lat="47.8341" lon="7.14445">
        <ele>590.55</ele>
        <time>2016-02-08T12:54:03.000Z</time>
      </trkpt>
      <trkpt lat="47.83383" lon="7.14483">
        <ele>584.39</ele>
        <time>2016-02-08T12:54:34.000Z</time>
      </trkpt>
      <trkpt lat="47.8337" lon="7.14532">
        <ele>579.8</ele>
        <time>2016-02-08T12:55:01.000Z</time>
      </trkpt>
      <trkpt lat="47.83366" lon="7.1455">
        <ele>577.62</ele>
        <time>2016-02-08T12:55:12.000Z</time>
      </trkpt>
      <trkpt lat="47.83355" lon="7.1457">
        <ele>575.68</ele>
        <time>2016-02-08T12:55:24.000Z</time>
      </trkpt>
      <trkpt lat="47.83338" lon="7.14586">
        <ele>573.63</ele>
        <time>2016-02-08T12:55:39.000Z</time>
      </trkpt>
      <trkpt lat="47.8331" lon="7.14569">
        <ele>570.03</ele>
        <time>2016-02-08T12:56:05.000Z</time>
      </trkpt>
      <trkpt lat="47.83298" lon="7.1455">
        <ele>566.45</ele>
        <time>2016-02-08T12:56:20.000Z</time>
      </trkpt>
      <trkpt lat="47.83274" lon="7.14462">
        <ele>562.67</ele>
        <time>2016-02-08T12:57:13.000Z</time>
      </trkpt>
      <trkpt lat="47.83263" lon="7.14435">
        <ele>559.75</ele>
        <time>2016-02-08T12:57:28.000Z</time>
      </trkpt>
      <trkpt lat="47.83263" lon="7.14367">
        <ele>557.63</ele>
        <time>2016-02-08T12:58:02.000Z</time>
      </trkpt>
      <trkpt lat="47.83252" lon="7.14336">
        <ele>556.95</ele>
        <time>2016-02-08T12:58:19.000Z</time>
      </trkpt>
      <trkpt lat="47.83229" lon="7.14323">
        <ele>552.42</ele>
        <time>2016-02-08T12:58:36.000Z</time>
      </trkpt>
      <trkpt lat="47.83202" lon="7.14331">
        <ele>550.03</ele>
        <time>2016-02-08T12:58:51.000Z</time>
      </trkpt>
      <trkpt lat="47.83184" lon="7.14358">
        <ele>546.9</ele>
        <time>2016-02-08T12:59:12.000Z</time>
      </trkpt>
      <trkpt lat="47.8316" lon="7.14354">
        <ele>542.31</ele>
        <time>2016-02-08T12:59:32.000Z</time>
      </trkpt>
      <trkpt lat="47.83138" lon="7.14331">
        <ele>540.37</ele>
        <time>2016-02-08T12:59:53.000Z</time>
      </trkpt>
      <trkpt lat="47.83093" lon="7.14383">
        <ele>533.47</ele>
        <time>2016-02-08T13:00:37.000Z</time>
      </trkpt>
      <trkpt lat="47.83049" lon="7.14399">
        <ele>529.01</ele>
        <time>2016-02-08T13:01:13.000Z</time>
      </trkpt>
      <trkpt lat="47.83042" lon="7.14418">
        <ele>525.9</ele>
        <time>2016-02-08T13:01:29.000Z</time>
      </trkpt>
      <trkpt lat="47.83039" lon="7.14476">
        <ele>522.35</ele>
        <time>2016-02-08T13:01:54.000Z</time>
      </trkpt>
      <trkpt lat="47.83021" lon="7.14562">
        <ele>517.53</ele>
        <time>2016-02-08T13:02:37.000Z</time>
      </trkpt>
      <trkpt lat="47.83022" lon="7.14584">
        <ele>515.4</ele>
        <time>2016-02-08T13:02:48.000Z</time>
      </trkpt>
      <trkpt lat="47.83011" lon="7.1464">
        <ele>510.86</ele>
        <time>2016-02-08T13:03:20.000Z</time>
      </trkpt>
      <trkpt lat="47.82998" lon="7.14683">
        <ele>505.54</ele>
        <time>2016-02-08T13:03:46.000Z</time>
      </trkpt>
      <trkpt lat="47.82941" lon="7.14727">
        <ele>499.74</ele>
        <time>2016-02-08T13:04:32.000Z</time>
      </trkpt>
      <trkpt lat="47.82919" lon="7.1472">
        <ele>493.52</ele>
        <time>2016-02-08T13:04:53.000Z</time>
      </trkpt>
      <trkpt lat="47.82874" lon="7.14701">
        <ele>488.21</ele>
        <time>2016-02-08T13:05:32.000Z</time>
      </trkpt>
      <trkpt lat="47.82836" lon="7.14668">
        <ele>484.69</ele>
        <time>2016-02-08T13:06:02.000Z</time>
      </trkpt>
      <trkpt lat="47.82823" lon="7.14659">
        <ele>481.68</ele>
        <time>2016-02-08T13:06:15.000Z</time>
      </trkpt>
      <trkpt lat="47.82792" lon="7.14647">
        <ele>477.67</ele>
        <time>2016-02-08T13:06:38.000Z</time>
      </trkpt>
      <trkpt lat="47.82783" lon="7.14637">
        <ele>474.66</ele>
        <time>2016-02-08T13:06:47.000Z</time>
      </trkpt>
      <trkpt lat="47.82768" lon="7.14631">
        <ele>471.41</ele>
        <time>2016-02-08T13:07:04.000Z</time>
      </trkpt>
      <trkpt lat="47.82732" lon="7.14661">
        <ele>468.72</ele>
        <time>2016-02-08T13:07:40.000Z</time>
      </trkpt>
      <trkpt lat="47.82722" lon="7.14658">
        <ele>467.6</ele>
        <time>2016-02-08T13:07:49.000Z</time>
      </trkpt>
      <trkpt lat="47.82698" lon="7.14587">
        <ele>464.99</ele>
        <time>2016-02-08T13:08:32.000Z</time>
      </trkpt>
      <trkpt lat="47.82668" lon="7.14534">
        <ele>462.68</ele>
        <time>2016-02-08T13:09:05.000Z</time>
      </trkpt>
      <trkpt lat="47.82652" lon="7.14534">
        <ele>462.01</ele>
        <time>2016-02-08T13:09:16.000Z</time>
      </trkpt>
      <trkpt lat="47.82624" lon="7.14569">
        <ele>459.9</ele>
        <time>2016-02-08T13:09:39.000Z</time>
      </trkpt>
      <trkpt lat="47.82615" lon="7.146">
        <ele>459.75</ele>
        <time>2016-02-08T13:09:58.000Z</time>
      </trkpt>
      <trkpt lat="47.82616" lon="7.14621">
        <ele>459.23</ele>
        <time>2016-02-08T13:10:11.000Z</time>
      </trkpt>
      <trkpt lat="47.8262" lon="7.14635">
        <ele>456.11</ele>
        <time>2016-02-08T13:10:20.000Z</time>
      </trkpt>
      <trkpt lat="47.82621" lon="7.14649">
        <ele>452.65</ele>
        <time>2016-02-08T13:10:27.000Z</time>
      </trkpt>
      <trkpt lat="47.82611" lon="7.14681">
        <ele>446.98</ele>
        <time>2016-02-08T13:10:42.000Z</time>
      </trkpt>
      <trkpt lat="47.82546" lon="7.14776">
        <ele>438.45</ele>
        <time>2016-02-08T13:11:52.000Z</time>
      </trkpt>
      <trkpt lat="47.82542" lon="7.14794">
        <ele>435.36</ele>
        <time>2016-02-08T13:12:04.000Z</time>
      </trkpt>
      <trkpt lat="47.82543" lon="7.1483">
        <ele>432.47</ele>
        <time>2016-02-08T13:12:24.000Z</time>
      </trkpt>
      <trkpt lat="47.8256" lon="7.1488">
        <ele>429.09</ele>
        <time>2016-02-08T13:12:54.000Z</time>
      </trkpt>
      <trkpt lat="47.82565" lon="7.14893">
        <ele>425.95</ele>
        <time>2016-02-08T13:13:02.000Z</time>
      </trkpt>
      <trkpt lat="47.82573" lon="7.14948">
        <ele>422.12</ele>
        <time>2016-02-08T13:13:33.000Z</time>
      </trkpt>
      <trkpt lat="47.82579" lon="7.14996">
        <ele>417.38</ele>
        <time>2016-02-08T13:14:01.000Z</time>
      </trkpt>
      <trkpt lat="47.82581" lon="7.15025">
        <ele>413.47</ele>
        <time>2016-02-08T13:14:16.000Z</time>
      </trkpt>
      <trkpt lat="47.82574" lon="7.15043">
        <ele>410.37</ele>
        <time>2016-02-08T13:14:29.000Z</time>
      </trkpt>
      <trkpt lat="47.82558" lon="7.15038">
        <ele>407.9</ele>
        <time>2016-02-08T13:14:46.000Z</time>
      </trkpt>
      <trkpt lat="47.82539" lon="7.15009">
        <ele>405.3</ele>
        <time>2016-02-08T13:15:07.000Z</time>
      </trkpt>
      <trkpt lat="47.82531" lon="7.15002">
        <ele>401.31</ele>
        <time>2016-02-08T13:15:18.000Z</time>
      </trkpt>
      <trkpt lat="47.82502" lon="7.1498">
        <ele>395.46</ele>
        <time>2016-02-08T13:15:55.000Z</time>
      </trkpt>
      <trkpt lat="47.82489" lon="7.14957">
        <ele>390.3</ele>
        <time>2016-02-08T13:16:11.000Z</time>
      </trkpt>
      <trkpt lat="47.82479" lon="7.14945">
        <ele>387.27</ele>
        <time>2016-02-08T13:16:20.000Z</time>
      </trkpt>
      <trkpt lat="47.82475" lon="7.14939">
        <ele>385.32</ele>
        <time>2016-02-08T13:16:24.000Z</time>
      </trkpt>
      <trkpt lat="47.82442" lon="7.14844">
        <ele>379.66</ele>
        <time>2016-02-08T13:17:19.000Z</time>
      </trkpt>
      <trkpt lat="47.82437" lon="7.14824">
        <ele>376.49</ele>
        <time>2016-02-08T13:17:30.000Z</time>
      </trkpt>
      <trkpt lat="47.82434" lon="7.14795">
        <ele>375</ele>
        <time>2016-02-08T13:17:45.000Z</time>
      </trkpt>
      <trkpt lat="47.82434" lon="7.14767">
        <ele>373</ele>
        <time>2016-02-08T13:18:02.000Z</time>
      </trkpt>
      <trkpt lat="47.8243" lon="7.14736">
        <ele>370.89</ele>
        <time>2016-02-08T13:18:23.000Z</time>
      </trkpt>
      <trkpt lat="47.82413" lon="7.14753">
        <ele>363.32</ele>
        <time>2016-02-08T13:18:52.000Z</time>
      </trkpt>
      <trkpt lat="47.82408" lon="7.14736">
        <ele>360.91</ele>
        <time>2016-02-08T13:19:11.000Z</time>
      </trkpt>
      <trkpt lat="47.82392" lon="7.14716">
        <ele>356.24</ele>
        <time>2016-02-08T13:19:38.000Z</time>
      </trkpt>
      <trkpt lat="47.82338" lon="7.14873">
        <ele>344.39</ele>
        <time>2016-02-08T13:21:08.000Z</time>
      </trkpt>
      <trkpt lat="47.82318" lon="7.14937">
        <ele>336.59</ele>
        <time>2016-02-08T13:21:44.000Z</time>
      </trkpt>
      <trkpt lat="47.82297" lon="7.15016">
        <ele>331.15</ele>
        <time>2016-02-08T13:22:26.000Z</time>
      </trkpt>
      <trkpt lat="47.8229" lon="7.15057">
        <ele>328.4</ele>
        <time>2016-02-08T13:22:45.000Z</time>
      </trkpt>
      <trkpt lat="47.82256" lon="7.15099">
        <ele>323.93</ele>
        <time>2016-02-08T13:23:19.000Z</time>
      </trkpt>
      <trkpt lat="47.82232" lon="7.15144">
        <ele>321.43</ele>
        <time>2016-02-08T13:23:49.000Z</time>
      </trkpt>
      <trkpt lat="47.82215" lon="7.15154">
        <ele>319.97</ele>
        <time>2016-02-08T13:24:04.000Z</time>
      </trkpt>
      <trkpt lat="47.82195" lon="7.15148">
        <ele>319.52</ele>
        <time>2016-02-08T13:24:19.000Z</time>
      </trkpt>
      <trkpt lat="47.82156" lon="7.15296">
        <ele>316.49</ele>
        <time>2016-02-08T13:25:40.000Z</time>
      </trkpt>
      <trkpt lat="47.82153" lon="7.15317">
        <ele>315.8</ele>
        <time>2016-02-08T13:25:52.000Z</time>
      </trkpt>
      <trkpt lat="47.82131" lon="7.15356">
        <ele>314.46</ele>
        <time>2016-02-08T13:26:17.000Z</time>
      </trkpt>
      <trkpt lat="47.82105" lon="7.15353">
        <ele>315.8</ele>
        <time>2016-02-08T13:27:41.000Z</time>
      </trkpt>
    </trkseg>
  </trk>
</gpx>